Holden, UT (84636)

6:26 PM MDT on July 24, 2016 (GMT -0600)
Oak City | | Change Station

Elev 5135 ft 39.37 °N, 112.33 °W | Updated 1 minute ago

Overcast
Overcast
96.2 °F
Feels Like 91 °F
N
6.0
Wind Variable Wind from North
Gusts 6.0 mph

Today
High -- | Low -- °F
--% Chance of Precip.
Yesterday
High -- | Low -- °F
Precip. -- in
Pressure 29.84 in
Visibility 10.0 miles
Clouds Scattered Clouds 4900 ft
Scattered Clouds 8500 ft
Mostly Cloudy 11000 ft
Heat Index 91 °F
Dew Point 28 °F
Humidity 9%
Rainfall 0.00 in
Snow Depth Not available.
6:23 AM 8:47 PM
Waning Gibbous, 71% visible
METAR KMLF 242352Z AUTO 31011G32KT 10SM -RA SCT049 SCT085 BKN110 32/02 A3005 RMK AO2 PK WND 25049/2313 LTG DSNT SE AND SW RAB11 SLP103 P0002 60002 T03220017 10383 20283 55007
Pressure 29.84 in
Visibility 10.0 miles
Clouds Scattered Clouds 4900 ft
Scattered Clouds 8500 ft
Mostly Cloudy 11000 ft
Heat Index 91 °F
Dew Point 28 °F
Humidity 9%
Rainfall 0.00 in
Snow Depth Not available.
6:23 AM 8:47 PM
Waning Gibbous, 71% visible
METAR KMLF 242352Z AUTO 31011G32KT 10SM -RA SCT049 SCT085 BKN110 32/02 A3005 RMK AO2 PK WND 25049/2313 LTG DSNT SE AND SW RAB11 SLP103 P0002 60002 T03220017 10383 20283 55007

10-Day Weather Forecast

Almanac

Astronomy

Jul. 24, 2016 Rise Set
Actual Time
Civil Twilight
Nautical Twilight
Astronomical Twilight
Moon
Length of Visible Light
Length of Day
Tomorrow will be .
, % of the Moon is Illuminated

Today's Extremes

State Highs State Lows

Community

WunderPhotos

Upload Photos

1,927,212 photos uploaded!

WunderBlog® & News

Nearby

Air Quality

  Air Quality AQ Index Pollutant
Not available.

Snow Depth

Station Depth Elevation

Earthquake Activity

City Distance Mag. Time & Date
Minimum magnitude displayed is 2.5.

Coastal Water Temperatures

Place Temperature

Stations

Nearby Weather Stations

Station Location Temp. Windchill Dew Point Humidity Wind Precip. Elev Updated Type
                   

Watches & Warnings

There are currently no watches in effect.